createdAt,value
2023-02-23T00:01:13.199Z,1.11
2023-02-23T00:03:40.677Z,1.09
2023-02-23T00:06:08.245Z,1.07
2023-02-23T00:08:36.435Z,1.05
2023-02-23T00:11:03.778Z,1.07
2023-02-23T00:13:30.206Z,1.04
2023-02-23T00:15:56.614Z,0.99
2023-02-23T00:18:23.054Z,0.97
2023-02-23T00:20:58.611Z,1.01
2023-02-23T00:23:27.571Z,1.02
2023-02-23T00:25:54.005Z,1.04
2023-02-23T00:28:20.419Z,0.99
2023-02-23T00:30:46.925Z,0.96
2023-02-23T00:33:13.459Z,0.95
2023-02-23T00:35:40.134Z,0.98
2023-02-23T00:38:06.602Z,0.99
2023-02-23T00:40:33.033Z,0.98
2023-02-23T00:42:59.448Z,0.96
2023-02-23T00:45:26.203Z,0.94
2023-02-23T00:47:52.634Z,0.95
2023-02-23T00:50:19.364Z,0.97
2023-02-23T00:52:45.888Z,0.93
2023-02-23T00:55:13.254Z,0.86
2023-02-23T00:57:40.026Z,0.79
2023-02-23T01:00:16.733Z,0.74
2023-02-23T01:02:43.211Z,0.70
2023-02-23T01:05:11.151Z,0.67
2023-02-23T01:07:38.130Z,0.62
2023-02-23T01:10:19.024Z,0.62
2023-02-23T01:12:49.752Z,0.60
2023-02-23T01:15:17.007Z,0.53
2023-02-23T01:17:43.483Z,0.47
2023-02-23T01:20:19.628Z,0.44
2023-02-23T01:22:47.698Z,0.40
2023-02-23T01:25:14.935Z,0.38
2023-02-23T01:27:41.425Z,0.39
2023-02-23T01:30:09.299Z,0.35
2023-02-23T01:32:36.815Z,0.31
2023-02-23T01:35:04.832Z,0.28
2023-02-23T01:37:32.051Z,0.24
2023-02-23T01:39:58.561Z,0.22
2023-02-23T01:42:25.640Z,0.19
2023-02-23T01:44:52.102Z,0.16
2023-02-23T01:47:20.421Z,0.13
2023-02-23T01:49:46.986Z,0.12
2023-02-23T01:52:14.825Z,0.08
2023-02-23T01:54:51.267Z,0.07
2023-02-23T01:57:20.547Z,0.03
2023-02-23T01:59:49.146Z,0.03
2023-02-23T02:02:21.239Z,0.03
2023-02-23T02:04:52.094Z,0.07
2023-02-23T02:07:21.663Z,0.07
2023-02-23T02:10:07.904Z,0.02
2023-02-23T02:12:34.428Z,-0.02
2023-02-23T02:15:02.299Z,-0.05
2023-02-23T02:17:48.325Z,-0.11
2023-02-23T02:20:26.556Z,-0.13
2023-02-23T02:23:11.406Z,-0.17
2023-02-23T02:25:44.135Z,-0.18
2023-02-23T02:28:13.787Z,-0.22
2023-02-23T02:30:59.414Z,-0.21
2023-02-23T02:33:32.071Z,-0.24
2023-02-23T02:36:07.258Z,-0.27
2023-02-23T02:38:40.949Z,-0.34
2023-02-23T02:41:13.737Z,-0.35
2023-02-23T02:43:42.878Z,-0.38
2023-02-23T02:46:22.404Z,-0.42
2023-02-23T02:49:06.659Z,-0.43
2023-02-23T02:51:35.192Z,-0.44
2023-02-23T02:54:21.065Z,-0.47
2023-02-23T02:56:48.919Z,-0.50
2023-02-23T02:59:36.066Z,-0.49
2023-02-23T03:02:21.503Z,-0.48
2023-02-23T03:05:06.435Z,-0.46
2023-02-23T03:08:00.717Z,-0.47
2023-02-23T03:11:06.039Z,-0.51
2023-02-23T03:13:54.189Z,-0.50
2023-02-23T03:16:58.091Z,-0.51
2023-02-23T03:19:49.116Z,-0.53
2023-02-23T03:22:34.000Z,-0.57
2023-02-23T03:25:28.136Z,-0.58
2023-02-23T03:28:20.143Z,-0.61
2023-02-23T03:31:20.784Z,-0.63
2023-02-23T03:34:14.011Z,-0.66
2023-02-23T03:37:02.398Z,-0.66
2023-02-23T03:39:51.741Z,-0.65
2023-02-23T03:42:39.588Z,-0.69
2023-02-23T03:45:27.075Z,-0.73
2023-02-23T03:48:14.182Z,-0.71
2023-02-23T03:51:04.733Z,-0.73
2023-02-23T03:53:57.871Z,-0.75
2023-02-23T03:56:45.261Z,-0.78
2023-02-23T03:59:30.761Z,-0.81
2023-02-23T04:02:16.859Z,-0.80
2023-02-23T04:05:03.993Z,-0.82
2023-02-23T04:07:49.443Z,-0.83
2023-02-23T04:10:34.752Z,-0.84
2023-02-23T04:13:14.634Z,-0.88
2023-02-23T04:15:47.476Z,-0.90
2023-02-23T04:18:15.700Z,-0.89
2023-02-23T04:20:42.493Z,-0.91
2023-02-23T04:23:08.983Z,-0.86
2023-02-23T04:25:35.549Z,-0.87
2023-02-23T04:28:01.963Z,-0.90
2023-02-23T04:30:28.638Z,-0.90
2023-02-23T04:32:55.753Z,-0.88
2023-02-23T04:35:22.276Z,-0.86
2023-02-23T04:37:48.873Z,-0.86
2023-02-23T04:40:15.435Z,-0.89
2023-02-23T04:42:41.954Z,-0.93
2023-02-23T04:45:08.784Z,-0.95
2023-02-23T04:47:35.190Z,-0.96
2023-02-23T04:50:01.633Z,-0.97
2023-02-23T04:52:28.049Z,-0.95
2023-02-23T04:54:54.518Z,-0.95
2023-02-23T04:57:20.932Z,-0.98
2023-02-23T04:59:47.378Z,-1.01
2023-02-23T05:02:13.815Z,-1.02
2023-02-23T05:04:40.280Z,-1.02
2023-02-23T05:07:06.740Z,-0.98
2023-02-23T05:09:33.442Z,-0.98
2023-02-23T05:11:59.862Z,-1.03
2023-02-23T05:14:27.115Z,-1.05
2023-02-23T05:16:53.604Z,-1.07
2023-02-23T05:19:20.032Z,-1.09
2023-02-23T05:21:46.522Z,-1.12
2023-02-23T05:24:13.287Z,-1.14
2023-02-23T05:26:39.949Z,-1.20
2023-02-23T05:29:06.698Z,-1.19
2023-02-23T05:31:33.244Z,-1.20
2023-02-23T05:33:59.706Z,-1.19
2023-02-23T05:36:26.312Z,-1.18
2023-02-23T05:38:52.833Z,-1.21
2023-02-23T05:41:20.898Z,-1.18
2023-02-23T05:43:48.156Z,-1.13
2023-02-23T05:46:19.995Z,-1.15
2023-02-23T05:48:46.506Z,-1.13
2023-02-23T05:51:14.066Z,-1.13
2023-02-23T05:53:41.233Z,-1.14
2023-02-23T05:56:09.141Z,-1.12
2023-02-23T05:58:35.572Z,-1.08
2023-02-23T06:01:02.084Z,-1.06
2023-02-23T06:03:28.505Z,-1.06
2023-02-23T06:05:56.136Z,-1.07
2023-02-23T06:08:22.947Z,-1.09
2023-02-23T06:10:49.350Z,-1.08
2023-02-23T06:13:16.367Z,-1.06
2023-02-23T06:15:43.490Z,-1.01
2023-02-23T06:18:10.288Z,-1.01
2023-02-23T06:20:39.460Z,-1.00
2023-02-23T06:23:07.589Z,-1.03
2023-02-23T06:25:34.344Z,-1.02
2023-02-23T06:28:00.776Z,-1.02
2023-02-23T06:30:27.237Z,-0.99
2023-02-23T06:32:53.647Z,-0.95
2023-02-23T06:35:20.134Z,-0.94
2023-02-23T06:37:46.548Z,-0.88
2023-02-23T06:40:13.107Z,-0.82
2023-02-23T06:42:39.534Z,-0.78
2023-02-23T06:45:06.204Z,-0.74
2023-02-23T06:47:33.605Z,-0.75
2023-02-23T06:50:00.098Z,-0.72
2023-02-23T06:52:26.560Z,-0.63
2023-02-23T06:54:52.990Z,-0.54
2023-02-23T06:57:19.532Z,-0.48
2023-02-23T06:59:45.977Z,-0.47
2023-02-23T07:02:13.411Z,-0.42
2023-02-23T07:04:40.024Z,-0.35
2023-02-23T07:07:06.519Z,-0.27
2023-02-23T07:09:32.948Z,-0.22
2023-02-23T07:11:59.827Z,-0.18
2023-02-23T07:14:27.340Z,-0.16
2023-02-23T07:16:54.018Z,-0.16
2023-02-23T07:19:20.508Z,-0.14
2023-02-23T07:21:47.005Z,-0.08
2023-02-23T07:24:15.630Z,0.00
2023-02-23T07:26:45.827Z,0.03
2023-02-23T07:29:15.112Z,0.08
2023-02-23T07:31:42.162Z,0.10
2023-02-23T07:34:09.319Z,0.13
2023-02-23T07:36:35.965Z,0.18
2023-02-23T07:39:03.208Z,0.28
2023-02-23T07:41:29.634Z,0.30
2023-02-23T07:43:56.077Z,0.34
2023-02-23T07:46:22.534Z,0.40
2023-02-23T07:48:48.986Z,0.45
2023-02-23T07:51:17.048Z,0.48
2023-02-23T07:53:43.954Z,0.50
2023-02-23T07:56:11.172Z,0.53
2023-02-23T07:58:38.483Z,0.55
2023-02-23T08:01:05.059Z,0.59
2023-02-23T08:03:31.675Z,0.64
2023-02-23T08:05:58.461Z,0.70
2023-02-23T08:08:25.448Z,0.76
2023-02-23T08:10:58.852Z,0.82
2023-02-23T08:13:25.278Z,0.86
2023-02-23T08:15:51.705Z,0.93
2023-02-23T08:18:18.256Z,0.97
2023-02-23T08:20:44.705Z,1.03
2023-02-23T08:23:11.644Z,1.08
2023-02-23T08:25:38.265Z,1.10
2023-02-23T08:28:06.882Z,1.16
2023-02-23T08:30:33.922Z,1.19
2023-02-23T08:33:01.491Z,1.24
2023-02-23T08:35:29.896Z,1.29
2023-02-23T08:37:57.716Z,1.34
2023-02-23T08:40:24.208Z,1.39
2023-02-23T08:42:52.132Z,1.45
2023-02-23T08:45:19.223Z,1.50
2023-02-23T08:47:45.859Z,1.56
2023-02-23T08:50:13.092Z,1.60
2023-02-23T08:52:40.258Z,1.65
2023-02-23T08:55:07.483Z,1.70
2023-02-23T08:57:34.440Z,1.76
2023-02-23T09:00:00.851Z,1.80
2023-02-23T09:02:28.217Z,1.88
2023-02-23T09:04:54.863Z,1.92
2023-02-23T09:07:25.756Z,2.00
2023-02-23T09:09:55.759Z,2.05
2023-02-23T09:12:22.267Z,2.13
2023-02-23T09:14:48.897Z,2.17
2023-02-23T09:17:17.725Z,2.23
2023-02-23T09:19:44.548Z,2.30
2023-02-23T09:22:11.047Z,2.36
2023-02-23T09:24:38.512Z,2.46
2023-02-23T09:27:07.319Z,2.54
2023-02-23T09:29:34.339Z,2.61
2023-02-23T09:32:00.895Z,2.68
2023-02-23T09:34:30.745Z,2.81
2023-02-23T09:36:57.244Z,2.95
2023-02-23T09:39:36.902Z,3.00
2023-02-23T09:42:04.577Z,3.07
2023-02-23T09:44:49.781Z,3.13
2023-02-23T09:47:19.504Z,3.21
2023-02-23T09:49:47.943Z,3.28
2023-02-23T09:52:29.166Z,3.38
2023-02-23T09:54:55.794Z,3.51
2023-02-23T09:57:26.795Z,3.57
2023-02-23T09:59:53.272Z,3.66
2023-02-23T10:02:37.956Z,3.77
2023-02-23T10:05:07.772Z,3.88
2023-02-23T10:07:49.965Z,4.01
2023-02-23T10:10:22.534Z,4.12
2023-02-23T10:13:02.382Z,4.23
2023-02-23T10:15:43.446Z,4.31
2023-02-23T10:18:15.968Z,4.38
2023-02-23T10:21:01.254Z,4.50
2023-02-23T10:23:31.250Z,4.68
2023-02-23T10:26:02.028Z,4.76
2023-02-23T10:28:30.904Z,4.88
2023-02-23T10:30:57.720Z,4.95
2023-02-23T10:33:36.252Z,5.03
2023-02-23T10:36:16.545Z,5.13
2023-02-23T10:38:42.989Z,5.26
2023-02-23T10:41:09.991Z,5.36
2023-02-23T10:43:36.601Z,5.43
2023-02-23T10:46:04.502Z,5.50
2023-02-23T10:48:39.871Z,5.57
2023-02-23T10:51:07.527Z,5.64
2023-02-23T10:53:35.908Z,5.77
2023-02-23T10:56:02.567Z,5.85
2023-02-23T10:58:29.220Z,5.91
2023-02-23T11:01:00.231Z,6.00
2023-02-23T11:03:29.686Z,6.01
2023-02-23T11:05:56.496Z,6.14
2023-02-23T11:08:22.969Z,6.20
2023-02-23T11:11:00.832Z,6.22
2023-02-23T11:13:28.521Z,6.29
2023-02-23T11:16:14.746Z,6.39
2023-02-23T11:18:42.911Z,6.50
2023-02-23T11:21:11.165Z,6.56
2023-02-23T11:23:39.140Z,6.68
2023-02-23T11:26:24.453Z,6.72
2023-02-23T11:28:52.747Z,6.81
2023-02-23T11:31:20.931Z,6.85
2023-02-23T11:33:48.390Z,6.91
2023-02-23T11:36:25.684Z,6.98
2023-02-23T11:39:04.029Z,7.01
2023-02-23T11:41:32.862Z,7.07
2023-02-23T11:43:59.893Z,7.14
2023-02-23T11:46:28.090Z,7.16
2023-02-23T11:49:01.856Z,7.22
2023-02-23T11:51:28.770Z,7.25
2023-02-23T11:53:55.819Z,7.32
2023-02-23T11:56:24.038Z,7.36
2023-02-23T11:58:53.789Z,7.40
2023-02-23T12:01:34.438Z,7.44
2023-02-23T12:04:00.936Z,7.48
2023-02-23T12:06:41.093Z,7.51
2023-02-23T12:09:12.989Z,7.48
2023-02-23T12:11:45.318Z,7.49
2023-02-23T12:14:18.826Z,7.48
2023-02-23T12:16:48.255Z,7.47
2023-02-23T12:19:23.215Z,7.49
2023-02-23T12:21:53.761Z,7.55
2023-02-23T12:24:28.326Z,7.62
2023-02-23T12:27:01.001Z,7.62
2023-02-23T12:29:45.878Z,7.56
2023-02-23T12:32:14.658Z,7.54
2023-02-23T12:34:47.953Z,7.57
2023-02-23T12:37:20.215Z,7.57
2023-02-23T12:39:50.518Z,7.54
2023-02-23T12:42:16.941Z,7.48
2023-02-23T12:44:53.579Z,7.45
2023-02-23T12:47:22.850Z,7.44
2023-02-23T12:50:00.364Z,7.46
2023-02-23T12:52:30.381Z,7.48
2023-02-23T12:54:57.417Z,7.54
2023-02-23T12:57:27.851Z,7.51
2023-02-23T13:00:20.368Z,7.49
2023-02-23T13:02:49.517Z,7.46
2023-02-23T13:05:15.960Z,7.45
2023-02-23T13:08:12.468Z,7.47
2023-02-23T13:10:51.082Z,7.47
2023-02-23T13:13:17.531Z,7.51
2023-02-23T13:15:49.690Z,7.51
2023-02-23T13:18:28.737Z,7.54
2023-02-23T13:20:58.688Z,7.58
2023-02-23T13:23:31.215Z,7.63
2023-02-23T13:26:16.334Z,7.67
2023-02-23T13:28:49.073Z,7.71
2023-02-23T13:31:24.654Z,7.76
2023-02-23T13:33:51.935Z,7.77
2023-02-23T13:36:19.629Z,7.81
2023-02-23T13:38:53.186Z,7.82
2023-02-23T13:41:38.102Z,7.88
2023-02-23T13:44:19.754Z,7.86
2023-02-23T13:46:54.426Z,7.85
2023-02-23T13:49:34.488Z,7.82
2023-02-23T13:52:09.176Z,7.71
2023-02-23T13:54:36.618Z,7.66
2023-02-23T13:57:05.640Z,7.60
2023-02-23T13:59:38.367Z,7.56
2023-02-23T14:02:37.166Z,7.57
2023-02-23T14:05:21.230Z,7.55
2023-02-23T14:07:49.006Z,7.57
2023-02-23T14:10:23.283Z,7.58
2023-02-23T14:13:08.218Z,7.59
2023-02-23T14:15:34.577Z,7.65
2023-02-23T14:18:02.477Z,7.62
2023-02-23T14:20:38.088Z,7.62
2023-02-23T14:23:13.747Z,7.60
2023-02-23T14:25:40.976Z,7.56
2023-02-23T14:28:27.009Z,7.59
2023-02-23T14:31:12.410Z,7.52
2023-02-23T14:33:41.626Z,7.53
2023-02-23T14:36:23.459Z,7.54
2023-02-23T14:38:55.929Z,7.54
2023-02-23T14:41:24.146Z,7.43
2023-02-23T14:44:27.154Z,7.41
2023-02-23T14:46:57.802Z,7.45
2023-02-23T14:49:26.329Z,7.49
2023-02-23T14:51:54.329Z,7.52
2023-02-23T14:54:27.043Z,7.45
2023-02-23T14:56:56.684Z,7.43
2023-02-23T14:59:24.634Z,7.45
2023-02-23T15:01:51.486Z,7.44
2023-02-23T15:04:20.458Z,7.49
2023-02-23T15:06:50.033Z,7.51
2023-02-23T15:09:19.565Z,7.48
2023-02-23T15:11:48.639Z,7.44
2023-02-23T15:14:26.811Z,7.45
2023-02-23T15:16:56.060Z,7.47
2023-02-23T15:19:33.399Z,7.46
2023-02-23T15:22:01.856Z,7.42
2023-02-23T15:24:31.117Z,7.42
2023-02-23T15:26:58.046Z,7.40
2023-02-23T15:29:33.766Z,7.36
2023-02-23T15:32:18.949Z,7.33
2023-02-23T15:34:45.701Z,7.29
2023-02-23T15:37:35.367Z,7.20
2023-02-23T15:40:04.583Z,7.13
2023-02-23T15:42:36.452Z,7.06
2023-02-23T15:45:04.525Z,6.98
2023-02-23T15:47:36.716Z,6.95
2023-02-23T15:50:08.840Z,6.90
2023-02-23T15:52:39.671Z,6.82
2023-02-23T15:55:07.968Z,6.76
2023-02-23T15:57:43.792Z,6.69
2023-02-23T16:00:19.666Z,6.62
2023-02-23T16:02:48.428Z,6.55
2023-02-23T16:05:20.312Z,6.46
2023-02-23T16:07:46.788Z,6.40
2023-02-23T16:10:16.227Z,6.36
2023-02-23T16:12:44.599Z,6.29
2023-02-23T16:15:21.699Z,6.23
2023-02-23T16:17:52.988Z,6.16
2023-02-23T16:20:26.339Z,6.09
2023-02-23T16:22:54.827Z,6.04
2023-02-23T16:25:24.548Z,5.97
2023-02-23T16:27:55.421Z,5.89
2023-02-23T16:30:29.659Z,5.83
2023-02-23T16:33:05.824Z,5.77
2023-02-23T16:35:41.019Z,5.69
2023-02-23T16:38:15.186Z,5.64
2023-02-23T16:40:42.276Z,5.59
2023-02-23T16:43:09.664Z,5.54
2023-02-23T16:45:37.310Z,5.51
2023-02-23T16:48:04.317Z,5.43
2023-02-23T16:50:30.976Z,5.33
2023-02-23T16:52:57.401Z,5.30
2023-02-23T16:55:28.299Z,5.27
2023-02-23T16:57:56.442Z,5.23
2023-02-23T17:00:24.867Z,5.19
2023-02-23T17:02:51.857Z,5.16
2023-02-23T17:05:22.650Z,5.11
2023-02-23T17:07:49.248Z,5.06
2023-02-23T17:10:24.975Z,5.02
2023-02-23T17:12:52.906Z,4.97
2023-02-23T17:15:19.936Z,4.94
2023-02-23T17:17:46.389Z,4.90
2023-02-23T17:20:17.179Z,4.84
2023-02-23T17:22:44.293Z,4.77
2023-02-23T17:25:11.131Z,4.73
2023-02-23T17:27:37.570Z,4.71
2023-02-23T17:30:05.276Z,4.69
2023-02-23T17:32:32.353Z,4.69
2023-02-23T17:34:58.849Z,4.65
2023-02-23T17:37:25.279Z,4.58
2023-02-23T17:39:51.959Z,4.55
2023-02-23T17:42:18.743Z,4.53
2023-02-23T17:44:45.200Z,4.50
2023-02-23T17:47:11.627Z,4.49
2023-02-23T17:49:38.105Z,4.45
2023-02-23T17:52:04.590Z,4.42
2023-02-23T17:54:31.003Z,4.39
2023-02-23T17:56:58.070Z,4.37
2023-02-23T17:59:24.746Z,4.34
2023-02-23T18:01:51.524Z,4.30
2023-02-23T18:04:18.037Z,4.26
2023-02-23T18:06:44.839Z,4.25
2023-02-23T18:09:14.507Z,4.21
2023-02-23T18:11:41.056Z,4.15
2023-02-23T18:14:09.553Z,4.11
2023-02-23T18:16:36.081Z,4.05
2023-02-23T18:19:02.590Z,4.00
2023-02-23T18:21:29.399Z,3.98
2023-02-23T18:23:56.049Z,3.92
2023-02-23T18:26:23.915Z,3.92
2023-02-23T18:28:51.274Z,3.94
2023-02-23T18:31:20.031Z,3.96
2023-02-23T18:33:47.898Z,3.99
2023-02-23T18:36:19.525Z,4.02
2023-02-23T18:38:45.945Z,4.04
2023-02-23T18:41:12.512Z,4.04
2023-02-23T18:43:39.149Z,4.05
2023-02-23T18:46:06.707Z,4.07
2023-02-23T18:48:33.152Z,4.08
2023-02-23T18:50:59.639Z,4.08
2023-02-23T18:53:26.068Z,4.07
2023-02-23T18:55:52.635Z,4.05
2023-02-23T18:58:19.834Z,4.08
2023-02-23T19:00:46.469Z,4.10
2023-02-23T19:03:13.221Z,4.11
2023-02-23T19:05:52.855Z,4.12
2023-02-23T19:08:20.297Z,4.11
2023-02-23T19:10:47.031Z,4.08
2023-02-23T19:13:13.530Z,4.06
2023-02-23T19:15:40.045Z,4.04
2023-02-23T19:18:06.712Z,4.01
2023-02-23T19:20:35.725Z,3.95
2023-02-23T19:23:03.284Z,3.91
2023-02-23T19:25:29.775Z,3.89
2023-02-23T19:27:56.729Z,3.91
2023-02-23T19:30:23.258Z,3.89
2023-02-23T19:32:50.148Z,3.82
2023-02-23T19:35:16.997Z,3.81
2023-02-23T19:37:50.638Z,3.84
2023-02-23T19:40:20.761Z,3.79
2023-02-23T19:42:49.440Z,3.77
2023-02-23T19:45:16.549Z,3.69
2023-02-23T19:47:43.269Z,3.66
2023-02-23T19:50:11.491Z,3.62
2023-02-23T19:52:38.853Z,3.62
2023-02-23T19:55:06.438Z,3.62
2023-02-23T19:57:32.914Z,3.59
2023-02-23T19:59:59.444Z,3.52
2023-02-23T20:02:26.116Z,3.52
2023-02-23T20:04:52.751Z,3.54
2023-02-23T20:07:19.497Z,3.52
2023-02-23T20:09:45.954Z,3.51
2023-02-23T20:12:12.575Z,3.51
2023-02-23T20:14:40.615Z,3.48
2023-02-23T20:17:07.166Z,3.47
2023-02-23T20:22:56.065Z,3.42
2023-02-23T20:25:23.148Z,3.37
2023-02-23T20:27:53.154Z,3.36
2023-02-23T20:30:20.328Z,3.39
2023-02-23T20:32:47.277Z,3.40
2023-02-23T20:35:15.025Z,3.37
2023-02-23T20:37:41.862Z,3.34
2023-02-23T20:40:15.920Z,3.27
2023-02-23T20:42:45.144Z,3.24
2023-02-23T20:45:14.248Z,3.19
2023-02-23T20:47:45.892Z,3.17
2023-02-23T20:50:13.267Z,3.18
2023-02-23T20:52:40.755Z,3.18
2023-02-23T20:55:07.784Z,3.18
2023-02-23T20:57:34.582Z,3.16
2023-02-23T21:00:01.663Z,3.17
2023-02-23T21:02:28.558Z,3.15
2023-02-23T21:04:54.985Z,3.11
2023-02-23T21:07:26.291Z,3.06
2023-02-23T21:09:59.332Z,3.01
2023-02-23T21:12:25.985Z,2.99
2023-02-23T21:14:52.416Z,2.99
2023-02-23T21:17:18.866Z,2.99
2023-02-23T21:19:45.360Z,2.96
2023-02-23T21:22:16.270Z,2.95
2023-02-23T21:24:44.283Z,2.99
2023-02-23T21:27:13.175Z,2.99
2023-02-23T21:29:40.194Z,2.97
2023-02-23T21:32:07.685Z,2.94
2023-02-23T21:34:34.604Z,2.89
2023-02-23T21:37:01.125Z,2.86
2023-02-23T21:39:28.292Z,2.85
2023-02-23T21:41:55.268Z,2.85
2023-02-23T21:44:21.745Z,2.81
2023-02-23T21:46:48.770Z,2.79
2023-02-23T21:49:16.033Z,2.76
2023-02-23T21:51:42.444Z,2.69
2023-02-23T21:54:08.909Z,2.64
2023-02-23T21:56:36.857Z,2.54
2023-02-23T21:59:04.435Z,2.57
2023-02-23T22:01:34.611Z,2.51
2023-02-23T22:04:01.545Z,2.49
2023-02-23T22:06:28.878Z,2.48
2023-02-23T22:08:55.663Z,2.52
2023-02-23T22:11:24.857Z,2.51
2023-02-23T22:13:58.842Z,2.53
2023-02-23T22:16:26.996Z,2.47
2023-02-23T22:18:54.767Z,2.42
2023-02-23T22:21:22.810Z,2.42
2023-02-23T22:23:50.261Z,2.43
2023-02-23T22:26:16.948Z,2.45
2023-02-23T22:28:43.625Z,2.41
2023-02-23T22:31:11.613Z,2.39
2023-02-23T22:33:40.472Z,2.35
2023-02-23T22:36:08.125Z,2.33
2023-02-23T22:38:35.048Z,2.31
2023-02-23T22:41:01.696Z,2.26
2023-02-23T22:43:28.153Z,2.22
2023-02-23T22:45:55.443Z,2.22
2023-02-23T22:48:23.496Z,2.25
2023-02-23T22:50:50.565Z,2.24
2023-02-23T22:53:17.624Z,2.23
2023-02-23T22:55:48.187Z,2.19
2023-02-23T22:58:15.261Z,2.19
2023-02-23T23:00:42.057Z,2.17
2023-02-23T23:03:09.435Z,2.13
2023-02-23T23:05:37.337Z,2.14
2023-02-23T23:08:03.823Z,2.16
2023-02-23T23:10:30.291Z,2.13
2023-02-23T23:12:59.219Z,2.12
2023-02-23T23:15:25.814Z,2.11
2023-02-23T23:17:52.268Z,2.16
2023-02-23T23:20:23.031Z,2.16
2023-02-23T23:22:49.970Z,2.13
2023-02-23T23:25:22.684Z,2.07
2023-02-23T23:27:53.881Z,2.04
2023-02-23T23:30:29.118Z,2.03
2023-02-23T23:32:56.205Z,2.01
2023-02-23T23:35:23.281Z,1.97
2023-02-23T23:37:52.924Z,1.95
2023-02-23T23:40:24.302Z,1.92
2023-02-23T23:42:50.877Z,1.93
2023-02-23T23:45:18.162Z,1.95
2023-02-23T23:47:45.237Z,1.95
2023-02-23T23:50:15.465Z,1.97
2023-02-23T23:52:45.661Z,1.98
2023-02-23T23:55:12.694Z,1.97
2023-02-23T23:57:39.581Z,1.99
